Time;durP1;ratioP1;P1;durP2;ratioP2;P2;SDS_P1;SDS_P2;PMS_P1;PMS_P2;Temp;Humidity;BMP_temperature;BMP_pressure;BME280_temperature;BME280_humidity;BME280_pressure;Samples;Min_cycle;Max_cycle;Signal;HPM_P1;HPM_P2
2024/01/27 00:01:41;;;;;;;4.55;2.33;;;;;;;;;;5102063;28;20111;-68
2024/01/27 00:04:06;;;;;;;5.95;2.92;;;6.50;99.90;;;;;;5103185;28;20035;-68
2024/01/27 00:06:32;;;;;;;5.93;2.92;;;6.20;99.90;;;;;;5096599;28;20018;-69
2024/01/27 00:08:58;;;;;;;5.20;2.63;;;6.40;99.90;;;;;;5098397;28;20028;-68
2024/01/27 00:11:24;;;;;;;3.70;2.33;;;6.50;99.90;;;;;;5103249;28;20012;-68
2024/01/27 00:13:50;;;;;;;6.57;3.03;;;6.60;99.90;;;;;;5102930;28;20020;-68
2024/01/27 00:16:16;;;;;;;4.95;2.38;;;;;;;;;;5102653;28;20052;-68
2024/01/27 00:18:41;;;;;;;7.38;2.85;;;6.50;99.90;;;;;;5102888;28;20114;-68
2024/01/27 00:21:08;;;;;;;6.47;2.10;;;6.60;99.90;;;;;;5086296;28;20020;-68
2024/01/27 00:23:37;;;;;;;3.63;1.80;;;;;;;;;;5082641;28;20048;-69
2024/01/27 00:26:02;;;;;;;;;;;6.50;99.90;;;;;;5074234;28;20016;-68
2024/01/27 00:28:28;;;;;;;2.47;1.50;;;6.60;99.90;;;;;;5062337;28;19915;-70
2024/01/27 00:30:54;;;;;;;3.00;1.00;;;6.50;99.90;;;;;;5071223;28;20056;-71
2024/01/27 00:33:20;;;;;;;1.90;1.13;;;;;;;;;;5082360;28;20025;-70
2024/01/27 00:35:46;;;;;;;6.13;2.00;;;6.50;99.90;;;;;;5082339;28;20021;-70
2024/01/27 00:38:12;;;;;;;5.53;0.80;;;;;;;;;;5082319;28;20071;-71
2024/01/27 00:40:38;;;;;;;1.42;0.80;;;;;;;;;;5082170;28;20095;-70
2024/01/27 00:43:04;;;;;;;3.38;0.90;;;6.40;96.90;;;;;;5071764;28;20033;-70
2024/01/27 00:45:31;;;;;;;1.60;0.73;;;6.50;99.90;;;;;;5061612;28;20029;-71
2024/01/27 00:47:57;;;;;;;1.27;0.60;;;6.50;99.90;;;;;;5061959;28;20020;-70
2024/01/27 00:50:23;;;;;;;2.67;1.20;;;6.50;99.90;;;;;;5061697;28;20241;-69
2024/01/27 00:52:49;;;;;;;3.55;1.00;;;6.40;99.90;;;;;;5061983;28;20027;-69
2024/01/27 00:55:14;;;;;;;1.50;0.60;;;6.50;97.60;;;;;;5061674;28;20020;-70
2024/01/27 00:57:40;;;;;;;1.60;1.02;;;6.50;99.90;;;;;;5061957;28;20021;-69
2024/01/27 01:00:08;;;;;;;2.28;1.05;;;6.40;99.90;;;;;;5080563;28;20366;-70
2024/01/27 01:02:34;;;;;;;1.35;1.10;;;6.30;99.90;;;;;;5081612;28;20024;-71
2024/01/27 01:05:00;;;;;;;3.28;1.05;;;6.30;97.10;;;;;;5081606;28;20096;-71
2024/01/27 01:07:27;;;;;;;1.38;0.80;;;6.20;99.90;;;;;;5081775;28;20027;-71
2024/01/27 01:09:53;;;;;;;2.80;1.05;;;6.30;99.90;;;;;;5081425;28;20016;-71
2024/01/27 01:12:18;;;;;;;2.30;0.95;;;6.30;99.90;;;;;;5081592;28;20020;-71
2024/01/27 01:14:44;;;;;;;2.00;1.13;;;6.40;99.90;;;;;;5081730;28;20025;-73
2024/01/27 01:17:10;;;;;;;4.93;1.27;;;;;;;;;;5080785;28;20359;-72
2024/01/27 01:19:40;;;;;;;1.40;1.10;;;6.10;99.90;;;;;;5081688;28;20020;-71
2024/01/27 01:22:05;;;;;;;2.25;1.48;;;6.00;99.90;;;;;;5081124;28;20031;-71
2024/01/27 01:24:31;;;;;;;4.78;1.08;;;;;;;;;;5081530;28;20091;-72
2024/01/27 01:26:57;;;;;;;3.50;0.52;;;;;;;;;;5081233;28;20316;-72
2024/01/27 01:29:23;;;;;;;4.22;1.00;;;6.20;99.60;;;;;;5085165;28;20133;-71
2024/01/27 01:31:49;;;;;;;3.88;1.05;;;6.10;99.90;;;;;;5101292;28;20351;-71
2024/01/27 01:34:15;;;;;;;3.67;0.88;;;5.90;99.90;;;;;;5101246;28;20032;-72
2024/01/27 01:36:41;;;;;;;3.63;1.20;;;;;;;;;;5101272;28;20028;-71
2024/01/27 01:39:07;;;;;;;1.67;0.57;;;5.90;99.90;;;;;;5101507;28;20027;-71
2024/01/27 01:41:33;;;;;;;0.90;0.60;;;;;;;;;;5101341;28;20114;-72
2024/01/27 01:43:59;;;;;;;1.30;0.85;;;5.80;99.90;;;;;;5101111;28;20284;-71
2024/01/27 01:46:25;;;;;;;1.23;0.57;;;5.80;99.90;;;;;;5099959;28;20012;-71
2024/01/27 01:48:51;;;;;;;2.80;0.82;;;;;;;;;;5101134;28;20112;-71
2024/01/27 01:51:17;;;;;;;4.00;0.95;;;;;;;;;;5101393;28;20077;-71
2024/01/27 01:53:48;;;;;;;1.20;0.82;;;5.70;95.70;;;;;;5101358;28;20023;-71
2024/01/27 01:56:17;;;;;;;3.97;0.80;;;5.70;95.70;;;;;;5101158;28;20375;-71
2024/01/27 01:58:42;;;;;;;1.02;0.60;;;5.60;99.90;;;;;;5101021;28;20030;-71
2024/01/27 02:01:09;;;;;;;3.47;0.60;;;5.60;95.00;;;;;;5101286;28;20028;-73
2024/01/27 02:03:35;;;;;;;1.80;0.70;;;;;;;;;;5101153;28;20227;-73
2024/01/27 02:06:01;;;;;;;1.05;0.60;;;5.60;99.90;;;;;;5100971;28;20053;-73
2024/01/27 02:08:27;;;;;;;1.45;0.80;;;;;;;;;;5101245;28;20051;-73
2024/01/27 02:10:52;;;;;;;1.60;0.90;;;5.50;99.90;;;;;;5101034;28;20030;-73
2024/01/27 02:13:23;;;;;;;3.95;1.27;;;5.60;99.90;;;;;;5100894;28;20047;-73
2024/01/27 02:15:50;;;;;;;1.25;0.52;;;5.50;93.50;;;;;;5091526;28;20028;-73
2024/01/27 02:18:16;;;;;;;1.75;0.30;;;;;;;;;;5100000;28;20112;-72
2024/01/27 02:20:43;;;;;;;2.65;1.30;;;5.40;98.20;;;;;;5100725;28;20028;-70
2024/01/27 02:23:08;;;;;;;0.43;0.43;;;5.30;99.90;;;;;;5100941;28;20047;-71
2024/01/27 02:25:35;;;;;;;2.05;0.80;;;5.40;97.90;;;;;;5100946;28;20027;-72
2024/01/27 02:28:03;;;;;;;0.90;0.55;;;5.30;99.90;;;;;;5101777;28;20308;-71
2024/01/27 02:30:29;;;;;;;0.82;0.70;;;;;;;;;;5104850;28;20479;-72
2024/01/27 02:32:58;;;;;;;1.02;0.77;;;5.30;99.90;;;;;;5095386;28;20032;-72
2024/01/27 02:35:24;;;;;;;1.15;0.65;;;5.10;99.90;;;;;;5104910;28;20027;-72
2024/01/27 02:37:52;;;;;;;3.10;0.85;;;5.20;99.90;;;;;;5104642;28;20035;-72
2024/01/27 02:40:17;;;;;;;0.80;0.52;;;5.10;99.90;;;;;;5104672;28;20028;-73
2024/01/27 02:42:43;;;;;;;1.20;0.50;;;4.90;99.90;;;;;;5103343;28;20039;-73
2024/01/27 02:45:11;;;;;;;0.73;0.43;;;5.00;93.10;;;;;;5104509;28;20030;-73
2024/01/27 02:47:37;;;;;;;1.83;0.60;;;;;;;;;;5104430;28;20357;-73
2024/01/27 02:50:03;;;;;;;1.20;0.50;;;4.90;98.80;;;;;;5104481;28;20036;-73
2024/01/27 02:52:29;;;;;;;5.20;0.65;;;4.90;99.90;;;;;;5103420;28;20034;-74
2024/01/27 02:54:55;;;;;;;1.52;0.45;;;4.60;97.10;;;;;;5104264;28;20269;-70
2024/01/27 02:57:21;;;;;;;1.20;0.80;;;4.70;99.90;;;;;;5104248;28;20077;-71
2024/01/27 02:59:47;;;;;;;3.28;0.68;;;4.90;99.90;;;;;;5104499;28;20296;-71
2024/01/27 03:02:13;;;;;;;2.50;0.60;;;4.90;99.90;;;;;;5104303;28;20087;-70
2024/01/27 03:04:39;;;;;;;0.40;0.25;;;4.80;99.90;;;;;;5102984;28;20020;-71
2024/01/27 03:07:05;;;;;;;0.80;0.45;;;;;;;;;;5104099;28;20055;-71
2024/01/27 03:09:31;;;;;;;1.02;0.50;;;4.80;99.90;;;;;;5104322;28;20052;-71
2024/01/27 03:11:57;;;;;;;0.20;0.20;;;4.70;99.90;;;;;;5104070;28;20019;-71
2024/01/27 03:14:23;;;;;;;1.67;0.73;;;4.80;99.90;;;;;;5104167;28;20028;-70
2024/01/27 03:16:50;;;;;;;2.88;1.15;;;;;;;;;;5103959;28;20331;-73
2024/01/27 03:19:16;;;;;;;1.02;0.70;;;4.90;99.90;;;;;;5104072;28;20047;-72
2024/01/27 03:21:42;;;;;;;1.33;0.88;;;;;;;;;;5103960;28;20345;-72
2024/01/27 03:24:08;;;;;;;4.30;1.27;;;;;;;;;;5103805;28;20047;-72
2024/01/27 03:26:34;;;;;;;1.15;0.75;;;4.80;99.90;;;;;;5103609;28;20098;-73
2024/01/27 03:29:00;;;;;;;2.65;0.60;;;;;;;;;;5103775;28;20032;-73
2024/01/27 03:31:33;;;;;;;0.93;0.70;;;4.70;94.20;;;;;;5103514;28;20055;-72
2024/01/27 03:33:59;;;;;;;2.05;0.82;;;4.70;99.90;;;;;;5103728;28;20094;-73
2024/01/27 03:36:25;;;;;;;0.77;0.40;;;4.60;99.90;;;;;;5103757;28;20226;-71
2024/01/27 03:38:51;;;;;;;1.45;0.77;;;;;;;;;;5103212;28;20376;-70
2024/01/27 03:41:16;;;;;;;0.90;0.40;;;4.60;99.90;;;;;;5102794;28;20075;-70
2024/01/27 03:43:42;;;;;;;0.85;0.50;;;;;;;;;;5103704;28;20197;-72
2024/01/27 03:46:08;;;;;;;3.58;1.25;;;4.60;99.90;;;;;;5103445;28;20219;-68
2024/01/27 03:48:35;;;;;;;3.75;0.77;;;;;;;;;;5103485;28;20028;-69
2024/01/27 03:51:01;;;;;;;4.45;0.80;;;;;;;;;;5103315;28;20299;-70
2024/01/27 03:53:27;;;;;;;2.25;0.50;;;4.70;95.60;;;;;;5103452;28;20024;-70
2024/01/27 03:55:53;;;;;;;5.90;1.20;;;4.70;99.90;;;;;;5103154;28;20142;-71
2024/01/27 03:58:19;;;;;;;4.53;1.10;;;;;;;;;;5103397;28;20024;-69
2024/01/27 04:00:45;;;;;;;0.90;0.70;;;;;;;;;;5102986;28;20031;-70
2024/01/27 04:03:11;;;;;;;1.85;0.57;;;;;;;;;;5103059;28;20088;-70
2024/01/27 04:05:37;;;;;;;0.88;0.82;;;4.70;99.90;;;;;;5103325;28;20024;-68
2024/01/27 04:08:06;;;;;;;2.85;0.80;;;4.70;99.90;;;;;;5102938;28;20216;-70
2024/01/27 04:10:32;;;;;;;2.17;1.65;;;4.90;99.90;;;;;;5103188;28;20077;-69
2024/01/27 04:12:57;;;;;;;1.27;0.90;;;4.80;99.90;;;;;;5103110;28;20086;-70
2024/01/27 04:15:23;;;;;;;4.18;1.10;;;4.80;99.90;;;;;;5102769;28;20025;-69
2024/01/27 04:17:49;;;;;;;2.35;0.80;;;4.90;99.90;;;;;;5101593;28;20031;-69
2024/01/27 04:20:15;;;;;;;1.35;0.73;;;;;;;;;;5102769;28;20027;-69
2024/01/27 04:22:41;;;;;;;1.58;0.70;;;4.70;99.90;;;;;;5101248;28;20308;-69
2024/01/27 04:25:07;;;;;;;1.23;0.73;;;4.80;99.90;;;;;;5102829;28;20088;-69
2024/01/27 04:27:38;;;;;;;1.17;0.60;;;4.80;96.80;;;;;;5102557;28;20059;-69
2024/01/27 04:30:06;;;;;;;2.70;0.70;;;4.80;99.90;;;;;;5102591;28;20027;-69
2024/01/27 04:32:32;;;;;;;1.00;0.57;;;;;;;;;;5092869;28;20231;-69
2024/01/27 04:34:58;;;;;;;3.60;0.80;;;4.80;99.90;;;;;;5102630;28;20060;-69
2024/01/27 04:37:24;;;;;;;2.30;1.20;;;;;;;;;;5102275;28;20032;-69
2024/01/27 04:39:50;;;;;;;3.63;0.77;;;4.70;99.90;;;;;;5102263;28;20024;-68
2024/01/27 04:42:16;;;;;;;2.58;0.47;;;4.50;95.40;;;;;;5102086;28;20035;-69
2024/01/27 04:44:42;;;;;;;2.90;0.95;;;4.50;99.90;;;;;;5102232;28;20024;-71
2024/01/27 04:47:08;;;;;;;2.63;0.85;;;;;;;;;;5102099;28;20035;-70
2024/01/27 04:49:34;;;;;;;3.83;1.00;;;4.90;99.90;;;;;;5102169;28;20085;-69
2024/01/27 04:51:59;;;;;;;2.88;0.85;;;4.30;99.90;;;;;;5102039;28;20016;-69
2024/01/27 04:54:25;;;;;;;1.95;0.70;;;;;;;;;;5101978;28;20220;-69
2024/01/27 04:56:51;;;;;;;4.68;0.93;;;;;;;;;;5102289;28;20035;-69
2024/01/27 04:59:17;;;;;;;1.58;0.98;;;4.20;99.90;;;;;;5102122;28;20024;-69
2024/01/27 05:01:46;;;;;;;3.47;0.90;;;4.10;93.60;;;;;;5102113;28;20238;-69
2024/01/27 05:04:12;;;;;;;6.25;1.02;;;4.00;94.20;;;;;;5092906;28;20032;-68
2024/01/27 05:06:41;;;;;;;3.83;0.70;;;;;;;;;;5081798;28;20055;-70
2024/01/27 05:09:08;;;;;;;9.02;3.13;;;;;;;;;;5081803;28;20339;-68
2024/01/27 05:11:33;;;;;;;4.63;1.23;;;4.00;98.70;;;;;;5081756;28;20020;-70
2024/01/27 05:14:02;;;;;;;8.73;1.40;;;4.00;98.50;;;;;;5081558;28;20075;-68
2024/01/27 05:16:28;;;;;;;3.90;1.13;;;3.90;93.60;;;;;;5081728;28;20028;-68
2024/01/27 05:18:54;;;;;;;5.53;1.13;;;3.90;99.90;;;;;;5081389;28;20331;-69
2024/01/27 05:21:19;;;;;;;6.30;1.02;;;3.80;99.10;;;;;;5081256;28;20028;-68
2024/01/27 05:23:45;;;;;;;3.40;0.77;;;3.60;99.90;;;;;;5081490;28;20032;-68
2024/01/27 05:26:11;;;;;;;4.85;1.10;;;4.00;99.90;;;;;;5087780;28;20048;-67
2024/01/27 05:28:39;;;;;;;2.50;0.90;;;3.50;95.50;;;;;;5101493;28;20047;-67
2024/01/27 05:31:08;;;;;;;4.97;1.25;;;3.70;92.90;;;;;;5101363;28;20071;-67
2024/01/27 05:33:34;;;;;;;4.00;1.65;;;;;;;;;;5101334;28;20103;-67
2024/01/27 05:35:59;;;;;;;5.70;1.70;;;3.80;99.90;;;;;;5101250;28;20042;-68
2024/01/27 05:38:26;;;;;;;7.43;1.35;;;4.00;98.10;;;;;;5101357;28;20019;-70
2024/01/27 05:40:51;;;;;;;4.65;1.50;;;3.90;99.90;;;;;;5101314;28;20016;-70
2024/01/27 05:43:17;;;;;;;3.55;0.75;;;3.80;99.60;;;;;;5101143;28;20035;-71
2024/01/27 05:45:44;;;;;;;4.80;1.35;;;3.70;99.30;;;;;;5101399;28;20077;-70
2024/01/27 05:48:10;;;;;;;5.45;1.23;;;3.70;99.90;;;;;;5101327;28;20019;-72
2024/01/27 05:50:36;;;;;;;4.72;0.82;;;3.90;99.20;;;;;;5101431;28;20016;-70
2024/01/27 05:53:01;;;;;;;6.57;1.55;;;3.60;99.90;;;;;;5101198;28;20252;-70
2024/01/27 05:55:27;;;;;;;2.72;0.80;;;;;;;;;;5101240;28;20028;-70
2024/01/27 05:57:55;;;;;;;4.57;1.27;;;3.60;99.90;;;;;;5100740;28;20035;-70
2024/01/27 06:00:21;;;;;;;5.90;1.55;;;3.60;99.90;;;;;;5100418;28;20024;-70
2024/01/27 06:02:47;;;;;;;6.30;2.97;;;;;;;;;;5100973;28;20286;-71
2024/01/27 06:05:12;;;;;;;6.38;1.13;;;3.70;96.60;;;;;;5104688;28;20027;-70
2024/01/27 06:07:40;;;;;;;3.60;0.88;;;3.60;91.60;;;;;;5105588;28;20016;-71
2024/01/27 06:10:09;;;;;;;5.93;1.17;;;3.50;99.90;;;;;;5105380;28;20054;-71
2024/01/27 06:12:35;;;;;;;4.88;1.20;;;3.50;95.00;;;;;;5105253;28;20415;-71
2024/01/27 06:15:01;;;;;;;2.38;1.00;;;3.60;99.90;;;;;;5105208;28;20020;-70
2024/01/27 06:17:27;;;;;;;2.33;1.13;;;;;;;;;;5105461;28;20316;-71
2024/01/27 06:19:53;;;;;;;3.13;1.02;;;3.60;97.70;;;;;;5103867;28;20323;-70
2024/01/27 06:22:18;;;;;;;4.90;2.00;;;3.90;99.10;;;;;;5105014;28;20020;-69
2024/01/27 06:24:44;;;;;;;5.70;1.20;;;3.60;99.90;;;;;;5104942;28;20031;-70
2024/01/27 06:27:11;;;;;;;7.03;1.17;;;3.50;92.10;;;;;;5105013;28;20032;-69
2024/01/27 06:29:37;;;;;;;7.85;1.45;;;;;;;;;;5088659;28;20098;-70
2024/01/27 06:32:03;;;;;;;8.63;1.67;;;;;;;;;;5083207;28;20367;-69
2024/01/27 06:34:29;;;;;;;5.13;1.40;;;3.70;99.90;;;;;;5083287;28;20024;-71
2024/01/27 06:36:54;;;;;;;5.72;1.63;;;3.20;99.90;;;;;;5084411;28;20092;-71
2024/01/27 06:39:21;;;;;;;1.65;0.90;;;;;;;;;;5084669;28;20025;-70
2024/01/27 06:41:47;;;;;;;5.90;1.45;;;3.50;99.90;;;;;;5084465;28;20027;-73
2024/01/27 06:44:14;;;;;;;1.55;1.05;;;3.50;99.90;;;;;;5084125;28;20036;-73
2024/01/27 06:46:40;;;;;;;2.92;1.60;;;3.70;99.90;;;;;;5084538;28;20020;-72
2024/01/27 06:49:06;;;;;;;4.47;1.20;;;;;;;;;;5085541;28;20028;-71
2024/01/27 06:51:31;;;;;;;7.60;1.50;;;3.60;99.90;;;;;;5083205;28;20622;-68
2024/01/27 06:53:57;;;;;;;4.05;1.63;;;3.70;99.90;;;;;;5084986;28;20070;-72
2024/01/27 06:56:23;;;;;;;3.92;1.20;;;3.80;99.90;;;;;;5084888;28;20017;-72
2024/01/27 06:58:49;;;;;;;2.30;0.73;;;;;;;;;;5084544;28;20339;-72
2024/01/27 07:01:14;;;;;;;4.28;1.30;;;3.70;99.90;;;;;;5084783;28;20070;-73
2024/01/27 07:03:40;;;;;;;2.15;0.88;;;3.90;99.90;;;;;;5083873;28;20040;-71
2024/01/27 07:06:06;;;;;;;2.28;0.88;;;;;;;;;;5083884;28;20032;-71
2024/01/27 07:08:32;;;;;;;2.50;0.45;;;3.80;99.90;;;;;;5083934;28;20021;-71
2024/01/27 07:10:58;;;;;;;3.47;1.17;;;3.80;99.90;;;;;;5083859;28;20062;-70
2024/01/27 07:13:24;;;;;;;4.00;1.05;;;3.80;99.40;;;;;;5083677;28;20021;-72
2024/01/27 07:15:50;;;;;;;3.45;0.82;;;;;;;;;;5083936;28;20181;-73
2024/01/27 07:18:17;;;;;;;4.60;0.98;;;3.70;99.90;;;;;;5083636;28;20024;-72
2024/01/27 07:20:43;;;;;;;3.75;0.70;;;4.00;99.90;;;;;;5083498;28;20048;-73
2024/01/27 07:23:09;;;;;;;5.80;1.13;;;;;;;;;;5083460;28;20042;-72
2024/01/27 07:25:35;;;;;;;0.68;0.55;;;;;;;;;;5081473;28;20024;-74
2024/01/27 07:28:00;;;;;;;1.27;0.77;;;4.00;99.90;;;;;;5101723;28;20023;-72
2024/01/27 07:30:27;;;;;;;2.70;0.70;;;;;;;;;;5103641;28;20205;-72
2024/01/27 07:32:52;;;;;;;2.22;0.93;;;4.10;99.90;;;;;;5103975;28;20020;-70
2024/01/27 07:35:18;;;;;;;0.55;0.45;;;4.10;99.90;;;;;;5103761;28;20099;-70
2024/01/27 07:37:44;;;;;;;2.92;1.20;;;;;;;;;;5103938;28;20043;-70
2024/01/27 07:40:10;;;;;;;4.07;1.20;;;4.20;91.40;;;;;;5102588;28;20036;-71
2024/01/27 07:42:36;;;;;;;2.90;0.85;;;4.30;99.90;;;;;;5103515;28;20090;-71
2024/01/27 07:45:02;;;;;;;2.25;0.70;;;;;;;;;;5103536;28;20335;-72
2024/01/27 07:47:28;;;;;;;4.65;1.48;;;;;;;;;;5103310;28;20323;-70
2024/01/27 07:49:54;;;;;;;4.93;1.10;;;4.80;96.60;;;;;;5103496;28;20069;-67
2024/01/27 07:52:20;;;;;;;0.90;0.63;;;5.10;98.40;;;;;;5103572;28;20286;-71
2024/01/27 07:54:46;;;;;;;6.28;1.15;;;;;;;;;;5103570;28;20266;-71
2024/01/27 07:57:12;;;;;;;2.05;1.00;;;;;;;;;;5103182;28;20386;-73
2024/01/27 07:59:38;;;;;;;6.22;1.10;;;5.00;96.00;;;;;;5103222;28;20090;-73
2024/01/27 08:02:07;;;;;;;0.93;0.55;;;5.00;97.20;;;;;;5102922;28;20312;-72
2024/01/27 08:04:33;;;;;;;4.78;1.80;;;;;;;;;;5102275;28;20077;-73
2024/01/27 08:06:58;;;;;;;5.80;1.00;;;5.30;96.70;;;;;;5103066;28;20043;-73
2024/01/27 08:09:25;;;;;;;3.17;1.13;;;5.20;96.50;;;;;;5102963;28;20027;-73
2024/01/27 08:11:54;;;;;;;2.38;1.13;;;;;;;;;;5102903;28;20351;-73
2024/01/27 08:14:20;;;;;;;;;;;5.30;84.60;;;;;;5103543;28;20091;-74
2024/01/27 08:16:45;;;;;;;2.13;1.02;;;5.50;95.90;;;;;;5101823;28;19911;-71
2024/01/27 08:19:11;;;;;;;3.10;1.10;;;5.40;91.10;;;;;;5102838;28;20020;-70
2024/01/27 08:21:37;;;;;;;3.63;0.95;;;5.50;95.30;;;;;;5101535;28;20097;-70
2024/01/27 08:24:03;;;;;;;4.40;0.80;;;;;;;;;;5082125;28;20036;-69
2024/01/27 08:26:28;;;;;;;3.13;1.20;;;5.30;92.60;;;;;;5063729;28;20074;-70
2024/01/27 08:28:56;;;;;;;2.15;1.02;;;5.70;94.30;;;;;;5066906;28;20235;-68
2024/01/27 08:31:22;;;;;;;2.65;0.98;;;;;;;;;;5082189;28;20072;-68
2024/01/27 08:33:47;;;;;;;1.83;1.23;;;5.90;93.80;;;;;;5082547;28;20042;-69
2024/01/27 08:36:14;;;;;;;0.98;0.73;;;6.00;77.20;;;;;;5081725;28;20305;-69
2024/01/27 08:38:40;;;;;;;2.40;1.23;;;6.10;92.80;;;;;;5082151;28;20080;-68
2024/01/27 08:41:05;;;;;;;4.90;0.90;;;6.20;92.50;;;;;;5077440;28;20021;-69
2024/01/27 08:43:34;;;;;;;2.45;1.10;;;6.20;87.50;;;;;;5062181;28;20037;-69
2024/01/27 08:46:00;;;;;;;5.50;1.23;;;6.30;92.00;;;;;;5062118;28;20076;-68
2024/01/27 08:48:26;;;;;;;1.63;0.70;;;6.20;90.80;;;;;;5062044;28;20021;-67
2024/01/27 08:50:52;;;;;;;5.07;0.80;;;;;;;;;;5061828;28;20063;-68
2024/01/27 08:53:17;;;;;;;2.33;0.90;;;6.20;91.30;;;;;;5069282;28;20036;-70
2024/01/27 08:55:46;;;;;;;2.63;0.70;;;6.40;91.30;;;;;;5081707;28;20032;-70
2024/01/27 08:58:11;;;;;;;3.90;0.95;;;6.40;85.70;;;;;;5081917;28;20021;-69
2024/01/27 09:00:37;;;;;;;2.10;1.00;;;;;;;;;;5081822;28;20086;-69
2024/01/27 09:03:03;;;;;;;3.67;0.88;;;6.30;90.90;;;;;;5081644;28;20051;-69
2024/01/27 09:05:29;;;;;;;6.85;1.20;;;;;;;;;;5081797;28;20320;-69
2024/01/27 09:07:55;;;;;;;1.38;0.82;;;6.40;91.30;;;;;;5081558;28;20201;-69
2024/01/27 09:10:20;;;;;;;1.48;1.02;;;6.10;81.60;;;;;;5081360;28;20032;-69
2024/01/27 09:12:46;;;;;;;1.40;0.88;;;6.20;91.00;;;;;;5081395;28;20024;-69
2024/01/27 09:15:14;;;;;;;2.95;0.85;;;6.30;91.00;;;;;;5081585;28;20028;-69
2024/01/27 09:17:42;;;;;;;2.15;0.88;;;;;;;;;;5081362;28;20098;-68
2024/01/27 09:20:09;;;;;;;8.05;1.65;;;6.30;90.10;;;;;;5081574;28;20035;-69
2024/01/27 09:22:35;;;;;;;4.05;1.00;;;;;;;;;;5080995;28;20025;-68
2024/01/27 09:25:01;;;;;;;1.80;0.68;;;;;;;;;;5081159;28;20257;-69
2024/01/27 09:27:27;;;;;;;2.80;1.15;;;;;;;;;;5081223;28;20020;-68
2024/01/27 09:29:53;;;;;;;2.40;0.95;;;;;;;;;;5081391;28;20055;-69
2024/01/27 09:32:19;;;;;;;2.63;0.80;;;6.40;89.50;;;;;;5079288;28;20044;-68
2024/01/27 09:34:44;;;;;;;2.17;1.23;;;6.50;90.10;;;;;;5095129;28;20039;-68
2024/01/27 09:37:10;;;;;;;4.43;1.02;;;6.30;77.30;;;;;;5100640;28;20023;-68
2024/01/27 09:39:35;;;;;;;4.45;1.20;;;7.00;75.90;;;;;;5101110;28;20024;-69
2024/01/27 09:42:07;;;;;;;2.42;0.85;;;6.50;88.40;;;;;;5101203;28;20519;-68
2024/01/27 09:44:34;;;;;;;2.50;0.95;;;6.70;71.90;;;;;;5101547;28;20061;-69
2024/01/27 09:47:00;;;;;;;2.92;1.00;;;;;;;;;;5101204;28;20020;-69
2024/01/27 09:49:27;;;;;;;2.15;1.00;;;7.20;72.90;;;;;;5099986;28;20043;-69
2024/01/27 09:51:54;;;;;;;2.20;0.77;;;;;;;;;;5090639;28;20028;-70
2024/01/27 09:54:20;;;;;;;2.30;0.70;;;;;;;;;;5099553;28;20054;-70
2024/01/27 09:56:47;;;;;;;7.45;1.20;;;7.00;86.20;;;;;;5099832;28;20016;-69
2024/01/27 09:59:15;;;;;;;1.58;0.93;;;;;;;;;;5099542;28;20016;-69
2024/01/27 10:01:41;;;;;;;11.50;1.52;;;7.40;83.50;;;;;;5099771;28;20026;-70
2024/01/27 10:04:09;;;;;;;2.83;1.40;;;7.50;75.10;;;;;;5099470;28;20047;-69
2024/01/27 10:06:35;;;;;;;0.93;0.63;;;;;;;;;;5099716;28;20300;-69
2024/01/27 10:09:01;;;;;;;3.92;1.25;;;;;;;;;;5091181;28;20111;-70
2024/01/27 10:11:28;;;;;;;3.72;1.02;;;7.60;81.40;;;;;;5101087;28;20024;-69
2024/01/27 10:13:55;;;;;;;4.88;1.63;;;7.50;62.00;;;;;;5101131;28;20036;-69
2024/01/27 10:16:21;;;;;;;2.80;0.68;;;7.50;78.00;;;;;;5101314;28;20024;-69
2024/01/27 10:18:47;;;;;;;4.80;1.17;;;7.70;81.00;;;;;;5101292;28;20130;-69
2024/01/27 10:21:18;;;;;;;4.55;1.38;;;7.80;80.60;;;;;;5100714;28;20016;-69
2024/01/27 10:23:43;;;;;;;1.75;0.80;;;8.00;80.30;;;;;;5100944;28;20020;-70
2024/01/27 10:26:10;;;;;;;0.85;0.65;;;7.90;64.30;;;;;;5091103;28;20093;-69
2024/01/27 10:28:36;;;;;;;3.75;0.88;;;;;;;;;;5100979;28;20036;-70
2024/01/27 10:31:13;;;;;;;4.03;0.82;;;7.70;64.50;;;;;;5100712;28;20248;-69
2024/01/27 10:33:50;;;;;;;7.43;1.40;;;7.90;60.20;;;;;;5100870;28;20036;-69
2024/01/27 10:36:16;;;;;;;2.03;0.45;;;;;;;;;;5100726;28;20055;-69
2024/01/27 10:38:42;;;;;;;9.48;1.60;;;7.90;77.40;;;;;;5100895;28;20031;-69
2024/01/27 10:41:12;;;;;;;4.07;0.70;;;7.80;77.10;;;;;;5099486;28;20242;-69
2024/01/27 10:43:39;;;;;;;3.42;0.88;;;7.70;77.10;;;;;;5100629;28;20031;-69
2024/01/27 10:46:06;;;;;;;2.20;0.90;;;7.80;58.80;;;;;;5100732;28;20016;-69
2024/01/27 10:48:37;;;;;;;1.27;0.80;;;8.10;73.80;;;;;;5100922;28;20035;-70
2024/01/27 10:51:16;;;;;;;3.72;1.00;;;8.00;77.00;;;;;;5104449;28;20016;-70
2024/01/27 10:53:44;;;;;;;3.58;1.13;;;8.00;58.80;;;;;;5104546;28;20397;-70
2024/01/27 10:56:10;;;;;;;3.40;1.20;;;;;;;;;;5104377;28;20350;-70
2024/01/27 10:58:41;;;;;;;9.07;1.33;;;8.00;76.90;;;;;;5104458;28;20690;-69
2024/01/27 11:01:11;;;;;;;4.43;1.10;;;8.20;76.50;;;;;;5104416;28;20034;-69
2024/01/27 11:03:39;;;;;;;3.80;1.30;;;8.00;67.50;;;;;;5104562;28;20051;-70
2024/01/27 11:06:06;;;;;;;7.47;0.95;;;8.20;57.70;;;;;;5104600;28;20083;-70
2024/01/27 11:08:34;;;;;;;1.15;0.50;;;8.10;57.30;;;;;;5104226;28;20036;-70
2024/01/27 11:11:01;;;;;;;4.90;1.70;;;8.60;75.70;;;;;;5104031;28;20296;-70
2024/01/27 11:13:30;;;;;;;3.78;1.13;;;8.10;75.90;;;;;;5104136;28;20335;-70
2024/01/27 11:15:58;;;;;;;2.33;1.02;;;8.40;69.80;;;;;;5102818;28;20095;-70
2024/01/27 11:18:25;;;;;;;4.97;1.42;;;8.30;75.10;;;;;;5104194;28;20020;-70
2024/01/27 11:20:54;;;;;;;3.60;1.27;;;8.00;68.30;;;;;;5104032;28;20024;-70
2024/01/27 11:23:20;;;;;;;4.55;1.73;;;;;;;;;;5103932;28;20061;-70
2024/01/27 11:25:46;;;;;;;3.03;1.15;;;7.80;76.00;;;;;;5103683;28;20224;-69
2024/01/27 11:28:16;;;;;;;4.85;1.02;;;7.90;77.40;;;;;;5104000;28;20032;-70
2024/01/27 11:30:47;;;;;;;2.67;0.80;;;8.00;58.40;;;;;;5103470;28;20383;-69
2024/01/27 11:33:13;;;;;;;4.07;1.17;;;7.90;59.40;;;;;;5103870;28;20024;-68
2024/01/27 11:35:39;;;;;;;2.25;1.10;;;8.20;78.60;;;;;;5103554;28;20087;-69
2024/01/27 11:38:05;;;;;;;3.53;1.00;;;8.00;79.50;;;;;;5103808;28;20028;-69
2024/01/27 11:40:31;;;;;;;3.85;1.00;;;7.90;64.20;;;;;;5103514;28;20019;-68
2024/01/27 11:43:00;;;;;;;6.72;1.17;;;7.90;78.90;;;;;;5103414;28;20031;-69
2024/01/27 11:45:32;;;;;;;4.35;1.10;;;7.90;59.70;;;;;;5103712;28;20028;-68
2024/01/27 11:47:58;;;;;;;5.35;1.05;;;;;;;;;;5103450;28;20058;-68
2024/01/27 11:50:24;;;;;;;6.63;1.20;;;;;;;;;;5103414;28;20031;-68
2024/01/27 11:52:50;;;;;;;4.70;0.95;;;7.80;71.80;;;;;;5103093;28;20062;-68
2024/01/27 11:55:15;;;;;;;3.67;1.52;;;7.80;78.40;;;;;;5103164;28;20012;-68
2024/01/27 11:57:42;;;;;;;2.90;1.23;;;8.00;59.00;;;;;;5103420;28;20034;-68
2024/01/27 12:00:11;;;;;;;2.08;1.13;;;7.90;77.20;;;;;;5102636;28;20054;-68
2024/01/27 12:02:41;;;;;;;5.53;1.30;;;7.90;76.90;;;;;;5102898;28;20081;-68
2024/01/27 12:05:08;;;;;;;9.70;1.80;;;7.80;76.70;;;;;;5103255;28;20020;-69
2024/01/27 12:07:34;;;;;;;5.80;1.52;;;;;;;;;;5103034;28;20028;-69
2024/01/27 12:09:59;;;;;;;4.65;1.10;;;8.20;77.00;;;;;;5103042;28;20062;-68
2024/01/27 12:12:25;;;;;;;2.95;1.67;;;8.20;76.70;;;;;;5103382;28;20303;-69
2024/01/27 12:14:51;;;;;;;4.30;1.10;;;8.10;59.80;;;;;;5102988;28;20043;-69
2024/01/27 12:17:18;;;;;;;7.05;1.30;;;8.30;61.70;;;;;;5102911;28;20028;-69
2024/01/27 12:19:48;;;;;;;12.10;0.95;;;8.20;58.00;;;;;;5102846;28;20054;-68
2024/01/27 12:22:27;;;;;;;3.92;1.10;;;8.00;58.30;;;;;;5102421;28;20422;-69
2024/01/27 12:25:10;;;;;;;6.82;1.25;;;7.60;77.80;;;;;;5102726;28;20020;-69
2024/01/27 12:27:36;;;;;;;4.53;1.02;;;;;;;;;;5079090;28;20009;-69
2024/01/27 12:30:03;;;;;;;2.20;0.88;;;7.60;60.00;;;;;;5079194;28;20032;-69
2024/01/27 12:32:28;;;;;;;5.78;1.25;;;7.60;78.20;;;;;;5082478;28;20024;-68
2024/01/27 12:34:54;;;;;;;16.50;1.55;;;;;;;;;;5082286;28;20035;-69
2024/01/27 12:37:22;;;;;;;2.38;0.85;;;7.50;77.60;;;;;;5082458;28;20188;-69
2024/01/27 12:39:50;;;;;;;4.95;0.73;;;;;;;;;;5082162;28;20028;-68
2024/01/27 12:42:19;;;;;;;3.00;0.75;;;7.30;79.20;;;;;;5082320;28;20180;-69
2024/01/27 12:44:45;;;;;;;5.85;1.55;;;7.00;74.70;;;;;;5082294;28;20028;-68
2024/01/27 12:47:11;;;;;;;6.78;1.92;;;;;;;;;;5082286;28;20024;-69
2024/01/27 12:49:37;;;;;;;6.72;1.50;;;7.10;79.60;;;;;;5082099;28;20017;-68
2024/01/27 12:52:03;;;;;;;2.65;1.13;;;;;;;;;;5081888;28;20205;-69
2024/01/27 12:54:28;;;;;;;7.03;1.45;;;7.00;79.70;;;;;;5082062;28;20063;-69
2024/01/27 12:56:56;;;;;;;3.25;1.20;;;7.00;60.20;;;;;;5082046;28;20032;-68
2024/01/27 12:59:21;;;;;;;5.20;1.08;;;6.80;79.30;;;;;;5081838;28;20012;-68
2024/01/27 13:01:47;;;;;;;3.92;1.05;;;6.80;69.10;;;;;;5081844;28;20304;-69
2024/01/27 13:04:13;;;;;;;1.90;0.75;;;6.70;79.80;;;;;;5081843;28;20232;-68
2024/01/27 13:06:38;;;;;;;1.45;1.10;;;6.50;73.30;;;;;;5081890;28;20037;-68
2024/01/27 13:09:04;;;;;;;8.30;1.35;;;6.70;65.40;;;;;;5081741;28;20198;-68
2024/01/27 13:11:30;;;;;;;4.45;1.50;;;;;;;;;;5081420;28;20040;-68
2024/01/27 13:13:56;;;;;;;7.80;1.00;;;;;;;;;;5081730;28;20087;-69
2024/01/27 13:16:22;;;;;;;2.88;0.70;;;6.80;80.30;;;;;;5081632;28;20032;-68
2024/01/27 13:18:47;;;;;;;4.45;1.00;;;6.90;80.20;;;;;;5081660;28;20587;-68
2024/01/27 13:21:14;;;;;;;2.47;1.33;;;7.20;80.30;;;;;;5068410;28;20112;-68